»·PEaware :: N77X KSBA-KVNY

N77X :: KSBA-KVNY

FLIGHT INFORMATION

Flight Status: Arrived
Operator: Privately registered:
United States
More flights under this callsign
Pilot: Will N. (25416)
Aircraft: CIRRUS VISIONJET
(SF50)
More flights by this aircraft type
Origin: KSBA Santa Barbara Mun
United States
Destination: KVNY Van Nuys
United States
More flights between these airports :: More routes between these airports
Route: HENER V186 FIM
File this flight plan on PilotEdge
Remarks:
Altitude:
(Current/Filed)
11,000ft
Speed:
(Current/Filed)
300kts
Departed: 09-Feb-21 08:36 AM
Arrived: 09-Feb-21 09:02 AM
Distance/Time
Traveled:
68nm/0:25
Distance/Time
To Go:
Arrived

Flight Plot

Page will automatically refresh every two minutes.


Map Options




Map Legend


Flown Route
Filed Route
Departure Airport
Arrival Airport
Navaid (VOR, NDB)
Fix

Horizontal Profiles

Position Reports

Time Latitude Longitude Heading Altitude Ground
Speed
09-Feb-21 08:05 34.432567 -119.835094 71 16ft 0kts
09-Feb-21 08:06 34.432567 -119.835094 71 16ft 0kts
09-Feb-21 08:07 34.432567 -119.835094 71 16ft 0kts
09-Feb-21 08:08 34.432567 -119.835094 71 16ft 0kts
09-Feb-21 08:09 34.432567 -119.835094 71 16ft 0kts
09-Feb-21 08:10 34.432567 -119.835094 71 16ft 0kts
09-Feb-21 08:11 34.432567 -119.835094 71 16ft 0kts
09-Feb-21 08:12 34.432567 -119.835094 71 16ft 0kts
09-Feb-21 08:13 34.432567 -119.835094 71 16ft 0kts
09-Feb-21 08:14 34.432567 -119.835094 71 16ft 0kts
09-Feb-21 08:15 34.432567 -119.835094 71 16ft 0kts
09-Feb-21 08:16 34.432567 -119.835094 71 16ft 0kts
09-Feb-21 08:17 34.432567 -119.835094 71 16ft 0kts
09-Feb-21 08:18 34.432567 -119.835094 71 16ft 0kts
09-Feb-21 08:19 34.432567 -119.835094 71 16ft 0kts
09-Feb-21 08:20 34.432567 -119.835094 71 16ft 0kts
09-Feb-21 08:21 34.432567 -119.835094 71 16ft 0kts
09-Feb-21 08:22 34.432567 -119.835094 71 16ft 0kts
09-Feb-21 08:23 34.432567 -119.835094 71 16ft 0kts
09-Feb-21 08:24 34.432567 -119.835094 71 16ft 0kts
09-Feb-21 08:25 34.432567 -119.835094 71 16ft 0kts
09-Feb-21 08:26 34.432567 -119.835094 71 16ft 0kts
09-Feb-21 08:27 34.432567 -119.835094 71 16ft 0kts
09-Feb-21 08:28 34.432567 -119.835094 71 16ft 0kts
09-Feb-21 08:29 34.432584 -119.835031 72 16ft 0kts
09-Feb-21 08:30 34.432101 -119.835785 251 15ft 3kts
09-Feb-21 08:31 34.431323 -119.835356 177 15ft 9kts
09-Feb-21 08:32 34.428756 -119.834646 173 14ft 0kts
09-Feb-21 08:33 34.428756 -119.834646 173 14ft 0kts
09-Feb-21 08:34 34.427895 -119.835801 269 14ft 27kts
09-Feb-21 08:35 34.427281 -119.875576 270 1182ft 138kts
09-Feb-21 08:36 34.426399 -119.929395 270 3133ft 152kts
09-Feb-21 08:37 34.425329 -119.982285 270 4803ft 155kts
09-Feb-21 08:38 34.396529 -119.994482 109 6459ft 171kts
09-Feb-21 08:39 34.390798 -119.935613 93 8109ft 176kts
09-Feb-21 08:40 34.386064 -119.875755 94 9658ft 181kts
09-Feb-21 08:41 34.380995 -119.813906 94 10977ft 195kts
09-Feb-21 08:42 34.374678 -119.737853 94 10985ft 250kts
09-Feb-21 08:43 34.367413 -119.651274 94 10982ft 264kts
09-Feb-21 08:44 34.359788 -119.560991 94 10981ft 266kts
09-Feb-21 08:45 34.352172 -119.471595 94 10979ft 266kts
09-Feb-21 08:46 34.344478 -119.382075 94 10977ft 267kts
09-Feb-21 08:47 34.336636 -119.291561 95 10990ft 266kts
09-Feb-21 08:48 34.333337 -119.202383 84 10991ft 265kts
09-Feb-21 08:49 34.339615 -119.113374 83 10529ft 267kts
09-Feb-21 08:50 34.346195 -119.024580 82 9324ft 260kts
09-Feb-21 08:51 34.352489 -118.938973 82 8313ft 252kts
09-Feb-21 08:52 34.347113 -118.856025 111 7572ft 245kts
09-Feb-21 08:53 34.318897 -118.780158 111 6985ft 218kts
09-Feb-21 08:54 34.343949 -118.714725 51 6170ft 220kts
09-Feb-21 08:55 34.382655 -118.650698 51 5109ft 222kts
09-Feb-21 08:56 34.416185 -118.586388 84 4971ft 214kts
09-Feb-21 08:57 34.401349 -118.520218 139 4969ft 211kts
09-Feb-21 08:58 34.343361 -118.502555 177 4225ft 222kts
09-Feb-21 08:59 34.282353 -118.497174 174 2961ft 199kts
09-Feb-21 09:00 34.231868 -118.492529 173 1763ft 104kts
09-Feb-21 09:01 34.210449 -118.490501 176 805ft 39kts
09-Feb-21 09:02 34.204309 -118.490626 258 805ft 7kts
09-Feb-21 09:03 34.205547 -118.491559 325 805ft 8kts

Navigation Log

Ident Type
Flight plan parsing failed, navigation log unavailable